createdAt,value
2023-05-01T00:02:38.160Z,16.17
2023-05-01T00:05:40.607Z,16.09
2023-05-01T00:08:42.652Z,16.06
2023-05-01T00:11:44.809Z,16.08
2023-05-01T00:14:46.959Z,16.04
2023-05-01T00:17:49.241Z,16.03
2023-05-01T00:20:51.585Z,15.93
2023-05-01T00:23:53.727Z,15.90
2023-05-01T00:26:55.923Z,15.95
2023-05-01T00:29:58.197Z,15.94
2023-05-01T00:33:01.909Z,15.95
2023-05-01T00:36:04.302Z,15.85
2023-05-01T00:39:09.437Z,15.91
2023-05-01T00:42:12.214Z,15.96
2023-05-01T00:45:14.689Z,15.93
2023-05-01T00:48:17.447Z,15.93
2023-05-01T00:51:21.430Z,15.87
2023-05-01T00:54:25.295Z,15.88
2023-05-01T00:57:27.808Z,15.87
2023-05-01T01:00:30.399Z,15.88
2023-05-01T01:03:32.547Z,15.74
2023-05-01T01:06:47.437Z,15.78
2023-05-01T01:09:57.407Z,15.78
2023-05-01T01:13:12.414Z,15.76
2023-05-01T01:16:41.770Z,15.81
2023-05-01T01:20:06.743Z,15.80
2023-05-01T01:23:20.314Z,15.83
2023-05-01T01:26:47.109Z,15.77
2023-05-01T01:29:49.304Z,15.80
2023-05-01T01:33:09.667Z,15.80
2023-05-01T01:36:35.049Z,15.87
2023-05-01T01:39:55.048Z,15.87
2023-05-01T01:43:03.899Z,15.85
2023-05-01T01:46:07.339Z,15.87
2023-05-01T01:49:20.880Z,15.93
2023-05-01T01:52:26.034Z,15.93
2023-05-01T01:55:31.599Z,16.05
2023-05-01T01:58:36.864Z,16.01
2023-05-01T02:01:41.894Z,16.98
2023-05-01T02:04:46.688Z,17.73
2023-05-01T02:07:51.585Z,18.13
2023-05-01T02:11:01.797Z,17.87
2023-05-01T02:14:07.090Z,17.11
2023-05-01T02:17:10.690Z,16.74
2023-05-01T02:20:13.976Z,16.58
2023-05-01T02:23:17.088Z,16.51
2023-05-01T02:26:23.602Z,16.39
2023-05-01T02:29:26.937Z,16.34
2023-05-01T02:32:29.033Z,16.37
2023-05-01T02:35:31.686Z,16.33
2023-05-01T02:38:33.955Z,16.41
2023-05-01T02:41:38.893Z,16.45
2023-05-01T02:44:54.094Z,16.39
2023-05-01T02:47:59.571Z,16.41
2023-05-01T02:51:04.192Z,16.37
2023-05-01T02:54:06.759Z,16.42
2023-05-01T02:57:10.839Z,16.41
2023-05-01T03:00:14.344Z,16.44
2023-05-01T03:03:17.248Z,16.48
2023-05-01T03:06:19.720Z,16.50
2023-05-01T03:09:22.321Z,16.48
2023-05-01T03:12:24.463Z,16.49
2023-05-01T03:15:26.527Z,16.57
2023-05-01T03:18:28.758Z,16.52
2023-05-01T03:21:32.202Z,16.54
2023-05-01T03:24:34.621Z,16.60
2023-05-01T03:27:36.787Z,16.60
2023-05-01T03:30:38.920Z,16.57
2023-05-01T03:33:41.364Z,16.61
2023-05-01T03:36:43.959Z,16.55
2023-05-01T03:39:46.794Z,16.62
2023-05-01T03:43:07.451Z,16.54
2023-05-01T03:46:09.753Z,16.53
2023-05-01T03:49:12.541Z,16.57
2023-05-01T03:52:21.346Z,16.55
2023-05-01T03:55:24.890Z,16.55
2023-05-01T03:58:28.139Z,16.47
2023-05-01T04:01:30.538Z,16.52
2023-05-01T04:04:33.417Z,16.60
2023-05-01T04:07:36.097Z,16.54
2023-05-01T04:10:38.329Z,16.48
2023-05-01T04:13:40.419Z,16.53
2023-05-01T04:16:43.281Z,16.51
2023-05-01T04:19:47.780Z,16.58
2023-05-01T04:22:50.230Z,16.55
2023-05-01T04:25:53.039Z,16.64
2023-05-01T04:28:55.593Z,16.67
2023-05-01T04:32:00.502Z,16.66
2023-05-01T04:35:04.222Z,16.76
2023-05-01T04:38:07.240Z,16.72
2023-05-01T04:41:09.544Z,16.81
2023-05-01T04:44:12.872Z,16.84
2023-05-01T04:47:15.688Z,16.86
2023-05-01T04:50:18.975Z,16.85
2023-05-01T04:53:22.050Z,16.78
2023-05-01T04:56:25.502Z,16.84
2023-05-01T04:59:31.579Z,16.81
2023-05-01T05:02:33.819Z,16.80
2023-05-01T05:05:36.278Z,16.79
2023-05-01T05:08:40.537Z,16.80
2023-05-01T05:11:44.682Z,16.93
2023-05-01T05:14:54.749Z,16.92
2023-05-01T05:17:56.942Z,16.92
2023-05-01T05:21:05.283Z,17.04
2023-05-01T05:24:07.832Z,17.12
2023-05-01T05:27:09.949Z,17.21
2023-05-01T05:30:12.555Z,17.53
2023-05-01T05:33:14.970Z,17.76
2023-05-01T05:36:17.475Z,18.01
2023-05-01T05:39:23.826Z,18.12
2023-05-01T05:42:26.038Z,17.95
2023-05-01T05:45:28.382Z,17.73
2023-05-01T05:48:31.340Z,17.74
2023-05-01T05:51:33.511Z,17.78
2023-05-01T05:54:36.290Z,18.07
2023-05-01T05:57:39.391Z,18.22
2023-05-01T06:04:00.552Z,18.44
2023-05-01T06:07:04.054Z,18.43
2023-05-01T06:10:07.050Z,18.38
2023-05-01T06:13:14.164Z,18.41
2023-05-01T06:16:25.832Z,18.36
2023-05-01T06:19:28.223Z,18.27
2023-05-01T06:22:40.223Z,18.27
2023-05-01T06:25:52.059Z,18.28
2023-05-01T06:28:55.168Z,18.32
2023-05-01T06:31:57.450Z,18.35
2023-05-01T06:34:59.687Z,18.38
2023-05-01T06:38:02.911Z,18.38
2023-05-01T06:41:05.682Z,18.31
2023-05-01T06:44:07.959Z,18.32
2023-05-01T06:47:10.475Z,18.21
2023-05-01T06:50:12.652Z,18.27
2023-05-01T06:53:14.875Z,18.25
2023-05-01T06:56:17.195Z,18.32
2023-05-01T06:59:19.646Z,18.31
2023-05-01T07:02:21.826Z,18.36
2023-05-01T07:05:23.964Z,18.42
2023-05-01T07:08:28.327Z,18.30
2023-05-01T07:11:30.661Z,18.35
2023-05-01T07:14:35.100Z,18.36
2023-05-01T07:17:37.129Z,18.27
2023-05-01T07:20:39.300Z,18.26
2023-05-01T07:23:41.350Z,18.30
2023-05-01T07:26:43.465Z,18.30
2023-05-01T07:29:45.490Z,18.35
2023-05-01T07:32:47.736Z,19.07
2023-05-01T07:35:50.023Z,19.31
2023-05-01T07:38:52.143Z,19.24
2023-05-01T07:41:54.209Z,19.12
2023-05-01T07:44:56.313Z,19.08
2023-05-01T07:47:58.399Z,19.03
2023-05-01T07:51:03.935Z,18.87
2023-05-01T07:54:06.244Z,18.75
2023-05-01T07:57:08.466Z,18.75
2023-05-01T08:00:11.273Z,18.76
2023-05-01T08:03:17.134Z,18.65
2023-05-01T08:06:19.832Z,18.72
2023-05-01T08:09:22.184Z,18.67
2023-05-01T08:12:24.397Z,18.73
2023-05-01T08:15:26.961Z,18.78
2023-05-01T08:18:32.520Z,18.72
2023-05-01T08:21:35.317Z,18.73
2023-05-01T08:24:50.232Z,18.89
2023-05-01T08:27:54.036Z,18.79
2023-05-01T08:30:56.891Z,18.73
2023-05-01T08:34:00.124Z,18.89
2023-05-01T08:37:03.745Z,18.96
2023-05-01T08:43:35.943Z,18.92
2023-05-01T08:47:19.763Z,18.86
2023-05-01T08:57:17.565Z,19.00
2023-05-01T09:00:40.441Z,19.00
2023-05-01T09:03:44.776Z,18.98
2023-05-01T09:06:47.277Z,18.92
2023-05-01T09:09:55.698Z,18.88
2023-05-01T09:13:26.061Z,18.78
2023-05-01T09:16:30.125Z,18.71
2023-05-01T09:19:33.285Z,18.73
2023-05-01T09:22:41.884Z,18.66
2023-05-01T09:25:45.634Z,18.73
2023-05-01T09:28:52.091Z,18.79
2023-05-01T09:31:54.193Z,18.86
2023-05-01T09:35:11.616Z,19.33
2023-05-01T09:38:27.310Z,20.22
2023-05-01T09:41:34.644Z,20.69
2023-05-01T09:44:46.997Z,21.14
2023-05-01T09:47:50.667Z,21.42
2023-05-01T09:50:57.168Z,21.58
2023-05-01T09:54:02.061Z,21.74
2023-05-01T09:57:07.052Z,21.86
2023-05-01T10:00:17.987Z,21.90
2023-05-01T10:03:24.312Z,21.36
2023-05-01T10:06:28.775Z,21.49
2023-05-01T10:09:31.285Z,21.58
2023-05-01T10:12:34.222Z,22.46
2023-05-01T10:15:37.933Z,22.82
2023-05-01T10:18:40.045Z,22.68
2023-05-01T10:21:45.044Z,22.57
2023-05-01T10:24:48.006Z,22.41
2023-05-01T10:27:52.440Z,22.45
2023-05-01T10:30:58.474Z,22.40
2023-05-01T10:34:02.186Z,22.30
2023-05-01T10:37:15.296Z,22.28
2023-05-01T10:40:41.456Z,22.15
2023-05-01T10:43:47.716Z,21.87
2023-05-01T10:46:49.971Z,21.75
2023-05-01T10:50:11.725Z,21.69
2023-05-01T10:53:14.804Z,21.58
2023-05-01T10:56:28.167Z,21.48
2023-05-01T11:00:03.971Z,21.35
2023-05-01T11:03:21.935Z,21.34
2023-05-01T11:06:24.415Z,21.30
2023-05-01T11:09:41.546Z,21.20
2023-05-01T11:12:46.747Z,21.19
2023-05-01T11:15:49.259Z,21.08
2023-05-01T11:18:53.445Z,21.07
2023-05-01T11:21:56.264Z,20.95
2023-05-01T11:24:58.747Z,20.93
2023-05-01T11:28:15.756Z,20.93
2023-05-01T11:34:41.072Z,20.95
2023-05-01T11:37:45.021Z,20.96
2023-05-01T11:40:55.957Z,20.90
2023-05-01T11:43:59.412Z,20.89
2023-05-01T11:47:16.562Z,20.88
2023-05-01T11:50:41.836Z,20.90
2023-05-01T11:54:14.455Z,20.89
2023-05-01T11:57:23.286Z,20.76
2023-05-01T12:00:31.573Z,20.71
2023-05-01T12:03:41.710Z,20.66
2023-05-01T12:06:47.212Z,20.59
2023-05-01T12:10:10.078Z,20.46
2023-05-01T12:13:22.149Z,20.47
2023-05-01T12:16:32.741Z,20.57
2023-05-01T12:19:48.320Z,20.54
2023-05-01T12:22:51.308Z,20.52
2023-05-01T12:26:01.595Z,20.47
2023-05-01T12:29:11.917Z,20.40
2023-05-01T12:32:17.167Z,20.41
2023-05-01T12:35:19.695Z,20.67
2023-05-01T12:38:23.752Z,20.73
2023-05-01T12:41:39.882Z,20.79
2023-05-01T12:44:43.536Z,20.75
2023-05-01T12:47:50.237Z,20.71
2023-05-01T12:50:57.215Z,20.79
2023-05-01T12:54:02.629Z,20.73
2023-05-01T12:57:15.867Z,20.60
2023-05-01T13:00:22.295Z,20.56
2023-05-01T13:03:29.244Z,20.51
2023-05-01T13:06:36.035Z,20.45
2023-05-01T13:09:39.911Z,20.46
2023-05-01T13:12:49.529Z,20.48
2023-05-01T13:15:53.442Z,20.44
2023-05-01T13:18:57.920Z,20.39
2023-05-01T13:22:00.269Z,20.35
2023-05-01T13:25:06.085Z,20.34
2023-05-01T13:28:20.079Z,20.36
2023-05-01T13:31:22.265Z,20.36
2023-05-01T13:34:29.335Z,20.41
2023-05-01T13:37:32.643Z,20.34
2023-05-01T13:40:34.824Z,20.30
2023-05-01T13:43:44.875Z,20.30
2023-05-01T13:46:48.382Z,20.34
2023-05-01T13:49:53.636Z,20.45
2023-05-01T13:52:56.044Z,20.75
2023-05-01T13:55:59.580Z,20.87
2023-05-01T13:59:02.785Z,20.92
2023-05-01T14:02:21.005Z,21.00
2023-05-01T14:05:28.210Z,21.09
2023-05-01T14:08:30.384Z,21.11
2023-05-01T14:11:32.744Z,21.12
2023-05-01T14:14:36.510Z,21.22
2023-05-01T14:17:39.475Z,21.26
2023-05-01T14:20:42.656Z,21.29
2023-05-01T14:23:47.396Z,21.25
2023-05-01T14:26:50.421Z,21.21
2023-05-01T14:29:52.708Z,21.21
2023-05-01T14:32:57.828Z,21.26
2023-05-01T14:36:01.449Z,21.22
2023-05-01T14:39:04.545Z,21.22
2023-05-01T14:42:07.153Z,21.25
2023-05-01T14:45:18.081Z,21.32
2023-05-01T14:48:27.577Z,21.34
2023-05-01T14:54:54.375Z,21.28
2023-05-01T14:57:57.584Z,21.20
2023-05-01T15:01:00.619Z,21.14
2023-05-01T15:04:03.827Z,21.08
2023-05-01T15:07:06.544Z,21.04
2023-05-01T15:10:17.769Z,21.00
2023-05-01T15:13:21.547Z,20.88
2023-05-01T15:16:24.170Z,20.86
2023-05-01T15:19:26.465Z,20.82
2023-05-01T15:22:28.909Z,20.73
2023-05-01T15:25:32.425Z,20.70
2023-05-01T15:28:35.466Z,21.18
2023-05-01T15:31:37.689Z,21.58
2023-05-01T15:34:41.413Z,21.96
2023-05-01T15:37:43.518Z,22.18
2023-05-01T15:40:46.314Z,22.23
2023-05-01T15:43:48.600Z,22.35
2023-05-01T15:46:50.993Z,22.32
2023-05-01T15:49:54.337Z,22.34
2023-05-01T15:52:57.474Z,22.35
2023-05-01T15:56:00.182Z,22.27
2023-05-01T15:59:05.690Z,22.16
2023-05-01T16:02:09.109Z,22.05
2023-05-01T16:05:12.053Z,21.92
2023-05-01T16:08:17.799Z,21.87
2023-05-01T16:11:19.961Z,21.73
2023-05-01T16:14:25.936Z,21.64
2023-05-01T16:17:28.294Z,21.59
2023-05-01T16:20:43.628Z,21.53
2023-05-01T16:23:45.836Z,21.39
2023-05-01T16:26:48.726Z,21.41
2023-05-01T16:29:52.235Z,21.29
2023-05-01T16:32:55.049Z,21.19
2023-05-01T16:35:59.779Z,21.11
2023-05-01T16:39:02.152Z,20.98
2023-05-01T16:42:04.717Z,20.90
2023-05-01T16:45:08.778Z,20.88
2023-05-01T16:48:11.705Z,20.84
2023-05-01T16:51:16.088Z,20.74
2023-05-01T16:54:18.789Z,20.68
2023-05-01T16:57:22.009Z,20.59
2023-05-01T17:00:24.342Z,20.46
2023-05-01T17:03:27.401Z,20.46
2023-05-01T17:06:29.728Z,20.43
2023-05-01T17:09:32.626Z,20.36
2023-05-01T17:12:35.530Z,20.28
2023-05-01T17:15:37.618Z,20.24
2023-05-01T17:18:39.716Z,20.17
2023-05-01T17:21:43.507Z,20.16
2023-05-01T17:24:45.775Z,20.46
2023-05-01T17:27:47.873Z,20.61
2023-05-01T17:30:50.550Z,20.56
2023-05-01T17:33:52.705Z,20.55
2023-05-01T17:36:57.193Z,20.62
2023-05-01T17:40:00.577Z,20.77
2023-05-01T17:43:03.449Z,20.75
2023-05-01T17:46:07.266Z,20.65
2023-05-01T17:49:10.985Z,20.64
2023-05-01T17:52:13.078Z,20.57
2023-05-01T17:55:18.003Z,20.64
2023-05-01T17:58:21.082Z,20.61
2023-05-01T18:01:24.016Z,20.40
2023-05-01T18:04:26.556Z,20.23
2023-05-01T18:07:30.833Z,20.03
2023-05-01T18:10:33.042Z,19.83
2023-05-01T18:13:48.161Z,19.78
2023-05-01T18:16:50.259Z,19.63
2023-05-01T18:19:53.583Z,19.54
2023-05-01T18:22:56.975Z,19.42
2023-05-01T18:25:59.518Z,19.27
2023-05-01T18:29:02.681Z,19.14
2023-05-01T18:32:05.213Z,19.07
2023-05-01T18:35:08.370Z,18.95
2023-05-01T18:38:10.959Z,18.88
2023-05-01T18:41:13.082Z,18.81
2023-05-01T18:44:16.238Z,18.76
2023-05-01T18:47:18.363Z,18.70
2023-05-01T18:50:21.970Z,18.59
2023-05-01T18:53:24.496Z,18.61
2023-05-01T18:56:28.034Z,18.48
2023-05-01T18:59:31.114Z,18.41
2023-05-01T19:02:33.450Z,18.38
2023-05-01T19:05:35.627Z,18.31
2023-05-01T19:08:38.290Z,18.20
2023-05-01T19:11:41.085Z,18.17
2023-05-01T19:14:43.382Z,18.14
2023-05-01T19:17:45.673Z,18.05
2023-05-01T19:20:47.757Z,18.08
2023-05-01T19:24:14.590Z,18.11
2023-05-01T19:27:18.248Z,18.03
2023-05-01T19:30:23.973Z,18.02
2023-05-01T19:33:31.350Z,17.95
2023-05-01T19:36:33.421Z,17.95
2023-05-01T19:39:35.775Z,17.93
2023-05-01T19:42:38.735Z,17.91
2023-05-01T19:45:43.949Z,17.87
2023-05-01T19:48:46.536Z,17.83
2023-05-01T19:51:54.597Z,17.80
2023-05-01T19:55:11.081Z,17.81
2023-05-01T19:58:13.215Z,17.77
2023-05-01T20:01:15.450Z,17.69
2023-05-01T20:04:17.921Z,17.69
2023-05-01T20:07:20.224Z,17.65
2023-05-01T20:10:22.463Z,17.68
2023-05-01T20:13:30.422Z,17.65
2023-05-01T20:16:33.287Z,17.59
2023-05-01T20:19:37.271Z,17.54
2023-05-01T20:22:40.894Z,17.54
2023-05-01T20:25:44.224Z,17.51
2023-05-01T20:28:48.711Z,17.53
2023-05-01T20:31:51.716Z,17.53
2023-05-01T20:34:55.419Z,17.47
2023-05-01T20:37:57.687Z,17.40
2023-05-01T20:40:59.781Z,17.39
2023-05-01T20:44:02.638Z,17.40
2023-05-01T20:47:04.756Z,17.32
2023-05-01T20:50:07.691Z,17.28
2023-05-01T20:53:09.736Z,17.31
2023-05-01T20:56:12.048Z,17.25
2023-05-01T20:59:14.173Z,17.23
2023-05-01T21:02:17.330Z,17.20
2023-05-01T21:05:19.580Z,17.23
2023-05-01T21:08:21.793Z,17.16
2023-05-01T21:11:24.009Z,17.16
2023-05-01T21:14:28.402Z,17.12
2023-05-01T21:17:33.684Z,17.12
2023-05-01T21:20:35.854Z,17.30
2023-05-01T21:23:46.984Z,17.41
2023-05-01T21:26:49.870Z,17.36
2023-05-01T21:29:57.154Z,17.41
2023-05-01T21:33:00.992Z,17.32
2023-05-01T21:36:03.687Z,17.26
2023-05-01T21:39:06.208Z,17.17
2023-05-01T21:42:08.236Z,17.09
2023-05-01T21:45:13.360Z,17.00
2023-05-01T21:48:16.861Z,17.05
2023-05-01T21:51:19.375Z,16.95
2023-05-01T21:54:21.991Z,16.99
2023-05-01T21:57:24.972Z,16.89
2023-05-01T22:00:28.106Z,16.90
2023-05-01T22:03:30.262Z,16.78
2023-05-01T22:06:32.583Z,16.82
2023-05-01T22:09:34.712Z,16.86
2023-05-01T22:12:37.165Z,16.86
2023-05-01T22:15:39.679Z,16.79
2023-05-01T22:18:41.755Z,16.76
2023-05-01T22:21:43.882Z,16.70
2023-05-01T22:24:46.100Z,16.61
2023-05-01T22:27:48.296Z,16.61
2023-05-01T22:30:51.313Z,16.50
2023-05-01T22:33:55.351Z,16.52
2023-05-01T22:36:57.498Z,16.49
2023-05-01T22:40:00.079Z,16.44
2023-05-01T22:43:02.586Z,16.44
2023-05-01T22:46:05.714Z,16.43
2023-05-01T22:49:10.207Z,16.48
2023-05-01T22:52:12.416Z,16.49
2023-05-01T22:55:14.683Z,16.47
2023-05-01T22:58:16.791Z,16.45
2023-05-01T23:01:18.938Z,16.38
2023-05-01T23:04:21.270Z,16.46
2023-05-01T23:07:23.399Z,16.38
2023-05-01T23:10:28.542Z,16.37
2023-05-01T23:13:32.370Z,16.31
2023-05-01T23:16:41.835Z,16.24
2023-05-01T23:19:45.886Z,16.21
2023-05-01T23:22:48.582Z,16.15
2023-05-01T23:25:50.737Z,16.10
2023-05-01T23:28:53.831Z,16.14
2023-05-01T23:31:57.274Z,16.12
2023-05-01T23:35:24.063Z,16.10
2023-05-01T23:38:26.237Z,16.20
2023-05-01T23:41:28.897Z,16.25
2023-05-01T23:44:31.249Z,16.22
2023-05-01T23:47:33.878Z,16.26
2023-05-01T23:50:36.778Z,16.22
2023-05-01T23:53:38.807Z,16.18
2023-05-01T23:56:40.963Z,16.16
2023-05-01T23:59:42.974Z,16.12
